createdAt,value
2022-07-25T00:01:59.495Z,88.40
2022-07-25T00:06:02.368Z,88.70
2022-07-25T00:10:05.036Z,90.00
2022-07-25T00:14:07.617Z,90.70
2022-07-25T00:18:09.730Z,90.10
2022-07-25T00:22:11.485Z,89.70
2022-07-25T00:26:14.468Z,89.50
2022-07-25T00:30:16.273Z,89.70
2022-07-25T00:34:18.033Z,89.80
2022-07-25T00:38:19.777Z,89.90
2022-07-25T00:42:24.255Z,89.80
2022-07-25T00:46:26.053Z,90.10
2022-07-25T00:50:29.363Z,90.00
2022-07-25T00:54:31.319Z,90.40
2022-07-25T00:58:33.783Z,90.90
2022-07-25T01:02:35.594Z,91.20
2022-07-25T01:06:38.468Z,90.80
2022-07-25T01:10:40.587Z,90.30
2022-07-25T01:14:42.348Z,90.20
2022-07-25T01:18:44.500Z,90.70
2022-07-25T01:22:46.636Z,90.20
2022-07-25T01:26:48.413Z,90.30
2022-07-25T01:30:50.179Z,89.80
2022-07-25T01:34:51.946Z,90.50
2022-07-25T01:38:54.307Z,91.10
2022-07-25T01:42:56.136Z,91.40
2022-07-25T01:46:57.955Z,91.40
2022-07-25T01:51:00.330Z,91.00
2022-07-25T01:55:02.227Z,90.90
2022-07-25T01:59:04.109Z,91.00
2022-07-25T02:03:24.841Z,90.80
2022-07-25T02:07:26.613Z,91.10
2022-07-25T02:11:28.463Z,90.90
2022-07-25T02:15:30.275Z,90.80
2022-07-25T02:19:32.223Z,91.10
2022-07-25T02:23:34.084Z,91.50
2022-07-25T02:27:35.884Z,91.50
2022-07-25T02:31:37.799Z,90.90
2022-07-25T02:36:17.479Z,90.60
2022-07-25T02:40:19.284Z,90.80
2022-07-25T02:44:21.042Z,91.10
2022-07-25T02:48:23.629Z,91.30
2022-07-25T02:52:25.431Z,91.10
2022-07-25T02:56:30.252Z,90.90
2022-07-25T03:00:33.984Z,91.10
2022-07-25T03:04:35.958Z,90.90
2022-07-25T03:08:38.204Z,91.00
2022-07-25T03:12:41.140Z,90.80
2022-07-25T03:16:42.949Z,91.10
2022-07-25T03:20:44.740Z,91.20
2022-07-25T03:24:46.561Z,91.90
2022-07-25T03:28:48.512Z,91.50
2022-07-25T03:32:50.301Z,91.00
2022-07-25T03:36:52.086Z,91.00
2022-07-25T03:40:53.953Z,91.20
2022-07-25T03:44:55.779Z,91.30
2022-07-25T03:48:57.702Z,91.30
2022-07-25T03:52:59.577Z,91.60
2022-07-25T03:57:01.586Z,91.90
2022-07-25T04:01:03.329Z,92.00
2022-07-25T04:05:07.381Z,92.40
2022-07-25T04:09:10.373Z,92.10
2022-07-25T04:13:12.852Z,92.10
2022-07-25T04:17:15.000Z,91.60
2022-07-25T04:21:20.249Z,91.70
2022-07-25T04:25:22.193Z,91.20
2022-07-25T04:29:24.047Z,91.40
2022-07-25T04:33:26.132Z,92.10
2022-07-25T04:37:27.915Z,92.30
2022-07-25T04:41:30.560Z,92.20
2022-07-25T04:45:33.307Z,92.00
2022-07-25T04:49:35.083Z,91.90
2022-07-25T04:53:36.951Z,91.70
2022-07-25T04:57:39.079Z,93.00
2022-07-25T05:02:18.455Z,92.80
2022-07-25T05:06:20.250Z,92.90
2022-07-25T05:10:22.216Z,92.90
2022-07-25T05:14:23.998Z,92.80
2022-07-25T05:18:28.368Z,92.70
2022-07-25T05:22:30.366Z,92.50
2022-07-25T05:26:32.172Z,92.20
2022-07-25T05:30:39.302Z,92.40
2022-07-25T05:34:41.783Z,92.50
2022-07-25T05:38:43.546Z,92.20
2022-07-25T05:42:45.965Z,91.80
2022-07-25T05:46:47.846Z,91.50
2022-07-25T05:50:49.694Z,91.20
2022-07-25T05:54:51.704Z,91.40
2022-07-25T05:58:58.226Z,91.30
2022-07-25T06:03:03.087Z,91.30
2022-07-25T06:07:05.131Z,91.20
2022-07-25T06:11:08.303Z,90.40
2022-07-25T06:15:22.097Z,90.10
2022-07-25T06:19:24.936Z,89.50
2022-07-25T06:23:28.289Z,88.70
2022-07-25T06:27:37.953Z,89.20
2022-07-25T06:31:40.381Z,88.50
2022-07-25T06:35:43.366Z,89.10
2022-07-25T06:39:45.987Z,89.50
2022-07-25T06:43:48.271Z,90.50
2022-07-25T06:52:25.705Z,89.20
2022-07-25T06:56:31.439Z,89.30
2022-07-25T07:00:33.291Z,88.70
2022-07-25T07:04:35.172Z,88.20
2022-07-25T07:08:37.779Z,88.50
2022-07-25T07:12:39.779Z,90.30
2022-07-25T07:16:42.437Z,88.80
2022-07-25T07:20:44.846Z,89.00
2022-07-25T07:24:48.231Z,88.40
2022-07-25T07:28:50.171Z,88.80
2022-07-25T07:32:52.111Z,88.30
2022-07-25T07:37:11.803Z,89.00
2022-07-25T07:41:14.060Z,88.90
2022-07-25T07:45:21.416Z,89.00
2022-07-25T07:49:23.221Z,89.90
2022-07-25T07:53:47.753Z,88.00
2022-07-25T07:57:50.616Z,87.80
2022-07-25T08:01:52.625Z,88.30
2022-07-25T08:05:54.511Z,88.10
2022-07-25T08:10:07.902Z,87.40
2022-07-25T08:14:10.282Z,88.00
2022-07-25T08:18:17.501Z,87.00
2022-07-25T08:22:20.210Z,87.40
2022-07-25T08:26:35.242Z,86.00
2022-07-25T08:30:38.789Z,85.80
2022-07-25T08:34:41.128Z,85.90
2022-07-25T08:38:43.961Z,86.30
2022-07-25T08:42:47.564Z,86.80
2022-07-25T08:47:00.474Z,86.90
2022-07-25T08:51:03.327Z,84.60
2022-07-25T08:55:09.050Z,84.30
2022-07-25T08:59:11.287Z,85.10
2022-07-25T09:03:13.545Z,84.60
2022-07-25T09:07:15.603Z,84.20
2022-07-25T09:11:35.195Z,85.00
2022-07-25T09:15:55.915Z,86.20
2022-07-25T09:19:58.255Z,85.10
2022-07-25T09:24:16.816Z,84.40
2022-07-25T09:28:19.829Z,85.30
2022-07-25T09:32:22.911Z,84.50
2022-07-25T09:36:25.048Z,83.40
2022-07-25T09:40:34.829Z,82.50
2022-07-25T09:44:38.847Z,83.30
2022-07-25T09:48:56.652Z,82.10
2022-07-25T09:53:03.904Z,82.20
2022-07-25T09:57:12.992Z,81.90
2022-07-25T10:01:22.849Z,81.80
2022-07-25T10:05:56.782Z,81.60
2022-07-25T10:10:00.410Z,81.00
2022-07-25T10:14:12.005Z,80.50
2022-07-25T10:18:16.458Z,79.50
2022-07-25T10:22:29.418Z,80.40
2022-07-25T10:27:03.730Z,73.90
2022-07-25T10:31:19.673Z,75.90
2022-07-25T10:35:25.954Z,66.70
2022-07-25T10:39:45.055Z,64.70
2022-07-25T10:43:48.922Z,65.40
2022-07-25T10:47:55.975Z,61.90
2022-07-25T10:52:05.656Z,62.90
2022-07-25T10:56:15.439Z,62.00
2022-07-25T11:00:23.825Z,63.80
2022-07-25T11:04:26.165Z,62.30
2022-07-25T11:08:57.825Z,62.60
2022-07-25T11:13:08.158Z,63.10
2022-07-25T11:17:12.781Z,61.30
2022-07-25T11:21:14.770Z,61.10
2022-07-25T11:25:26.337Z,62.00
2022-07-25T11:29:28.450Z,61.90
2022-07-25T11:33:30.659Z,62.10
2022-07-25T11:37:38.133Z,62.80
2022-07-25T11:41:42.872Z,62.90
2022-07-25T11:45:45.147Z,63.30
2022-07-25T11:49:49.904Z,62.80
2022-07-25T11:54:03.113Z,63.50
2022-07-25T11:58:08.709Z,62.90
2022-07-25T12:02:33.706Z,63.50
2022-07-25T12:06:35.953Z,63.60
2022-07-25T12:10:47.513Z,63.10
2022-07-25T12:14:52.817Z,63.60
2022-07-25T12:19:04.815Z,63.70
2022-07-25T12:23:11.524Z,63.90
2022-07-25T12:27:23.268Z,63.30
2022-07-25T12:31:28.714Z,63.80
2022-07-25T12:35:42.123Z,63.50
2022-07-25T12:39:44.112Z,64.10
2022-07-25T12:43:46.182Z,63.50
2022-07-25T12:47:48.578Z,62.10
2022-07-25T12:51:56.118Z,62.80
2022-07-25T12:56:02.433Z,61.70
2022-07-25T13:00:11.395Z,61.70
2022-07-25T13:04:30.905Z,61.00
2022-07-25T13:08:33.478Z,61.70
2022-07-25T13:12:45.075Z,60.80
2022-07-25T13:16:48.529Z,62.10
2022-07-25T13:20:51.033Z,62.40
2022-07-25T13:24:53.825Z,61.70
2022-07-25T13:29:05.215Z,61.70
2022-07-25T13:33:10.202Z,61.20
2022-07-25T13:37:12.097Z,59.70
2022-07-25T13:41:21.573Z,60.40
2022-07-25T13:45:23.529Z,61.50
2022-07-25T13:49:25.960Z,60.10
2022-07-25T13:53:30.486Z,59.60
2022-07-25T13:57:33.610Z,62.30
2022-07-25T14:01:47.587Z,60.30
2022-07-25T14:05:49.914Z,59.60
2022-07-25T14:09:54.458Z,59.00
2022-07-25T14:13:56.560Z,58.10
2022-07-25T14:17:58.786Z,58.50
2022-07-25T14:22:01.123Z,58.40
2022-07-25T14:26:03.130Z,58.20
2022-07-25T14:30:08.675Z,57.80
2022-07-25T14:34:10.927Z,59.50
2022-07-25T14:38:13.168Z,58.30
2022-07-25T14:42:17.512Z,58.10
2022-07-25T14:46:20.168Z,58.00
2022-07-25T14:50:25.492Z,57.60
2022-07-25T14:54:28.594Z,57.20
2022-07-25T14:58:30.946Z,57.50
2022-07-25T15:02:45.785Z,57.60
2022-07-25T15:06:48.910Z,58.80
2022-07-25T15:10:51.078Z,59.90
2022-07-25T15:14:52.976Z,59.60
2022-07-25T15:19:17.306Z,60.10
2022-07-25T15:23:21.079Z,60.70
2022-07-25T15:27:23.245Z,61.60
2022-07-25T15:31:26.585Z,60.90
2022-07-25T15:35:29.014Z,61.10
2022-07-25T15:39:47.414Z,60.20
2022-07-25T15:44:03.927Z,59.70
2022-07-25T15:48:10.724Z,61.00
2022-07-25T15:52:33.055Z,62.40
2022-07-25T15:56:35.071Z,60.30
2022-07-25T16:00:45.218Z,60.70
2022-07-25T16:04:48.491Z,62.80
2022-07-25T16:08:54.632Z,65.40
2022-07-25T16:12:59.050Z,66.70
2022-07-25T16:17:01.061Z,67.00
2022-07-25T16:21:07.949Z,66.90
2022-07-25T16:25:09.886Z,67.80
2022-07-25T16:29:17.583Z,66.70
2022-07-25T16:33:21.558Z,67.90
2022-07-25T16:37:23.864Z,68.80
2022-07-25T16:41:25.877Z,69.00
2022-07-25T16:45:29.172Z,68.90
2022-07-25T16:49:33.381Z,68.40
2022-07-25T16:53:41.747Z,68.30
2022-07-25T16:57:54.036Z,68.50
2022-07-25T17:01:56.646Z,68.00
2022-07-25T17:05:58.614Z,67.90
2022-07-25T17:10:00.445Z,67.00
2022-07-25T17:14:05.181Z,68.30
2022-07-25T17:18:10.010Z,67.50
2022-07-25T17:22:21.607Z,68.40
2022-07-25T17:26:28.922Z,68.20
2022-07-25T17:30:30.805Z,67.70
2022-07-25T17:34:36.020Z,68.70
2022-07-25T17:38:38.544Z,69.60
2022-07-25T17:42:44.736Z,71.30
2022-07-25T17:46:47.355Z,70.90
2022-07-25T17:50:49.600Z,71.60
2022-07-25T17:54:53.611Z,72.10
2022-07-25T17:58:55.665Z,72.60
2022-07-25T18:02:57.720Z,72.10
2022-07-25T18:07:02.373Z,71.80
2022-07-25T18:11:04.231Z,72.30
2022-07-25T18:15:06.809Z,72.60
2022-07-25T18:19:08.805Z,73.50
2022-07-25T18:23:10.782Z,73.60
2022-07-25T18:27:21.177Z,73.00
2022-07-25T18:31:23.153Z,72.10
2022-07-25T18:35:25.085Z,72.90
2022-07-25T18:39:27.262Z,73.00
2022-07-25T18:43:29.298Z,73.30
2022-07-25T18:47:37.147Z,73.30
2022-07-25T18:51:39.738Z,73.30
2022-07-25T18:55:48.531Z,72.70
2022-07-25T18:59:50.499Z,73.10
2022-07-25T19:03:52.518Z,73.10
2022-07-25T19:07:56.660Z,73.10
2022-07-25T19:11:58.626Z,73.40
2022-07-25T19:16:05.945Z,73.60
2022-07-25T19:20:09.805Z,74.20
2022-07-25T19:24:12.782Z,74.50
2022-07-25T19:28:16.114Z,74.40
2022-07-25T19:32:18.402Z,74.50
2022-07-25T19:36:25.920Z,74.50
2022-07-25T19:40:27.872Z,75.00
2022-07-25T19:44:29.870Z,75.70
2022-07-25T19:48:32.072Z,76.20
2022-07-25T19:52:34.058Z,76.10
2022-07-25T19:56:41.585Z,77.10
2022-07-25T20:00:43.643Z,77.50
2022-07-25T20:04:45.658Z,77.20
2022-07-25T20:08:51.068Z,77.40
2022-07-25T20:13:01.803Z,77.60
2022-07-25T20:17:04.103Z,77.80
2022-07-25T20:21:08.756Z,78.30
2022-07-25T20:25:15.532Z,76.50
2022-07-25T20:29:18.155Z,77.00
2022-07-25T20:33:20.154Z,76.70
2022-07-25T20:37:22.311Z,75.10
2022-07-25T20:41:27.545Z,74.50
2022-07-25T20:45:41.134Z,73.90
2022-07-25T20:49:44.068Z,73.30
2022-07-25T20:53:53.250Z,73.90
2022-07-25T20:57:55.807Z,76.00
2022-07-25T21:01:58.100Z,75.00
2022-07-25T21:06:03.633Z,73.90
2022-07-25T21:10:06.351Z,75.10
2022-07-25T21:14:08.793Z,75.90
2022-07-25T21:18:13.569Z,75.20
2022-07-25T21:22:25.630Z,75.00
2022-07-25T21:26:27.531Z,75.30
2022-07-25T21:30:29.432Z,75.50
2022-07-25T21:34:31.317Z,74.50
2022-07-25T21:38:35.017Z,74.40
2022-07-25T21:42:37.966Z,75.80
2022-07-25T21:46:39.741Z,75.20
2022-07-25T21:50:44.187Z,76.20
2022-07-25T21:54:46.664Z,76.20
2022-07-25T21:58:49.033Z,74.70
2022-07-25T22:02:58.666Z,73.90
2022-07-25T22:07:00.657Z,73.30
2022-07-25T22:11:15.579Z,73.00
2022-07-25T22:15:24.501Z,72.00
2022-07-25T22:19:46.507Z,71.80
2022-07-25T22:23:48.457Z,71.50
2022-07-25T22:27:58.015Z,71.10
2022-07-25T22:32:00.543Z,69.80
2022-07-25T22:36:02.601Z,70.70
2022-07-25T22:40:04.954Z,70.00
2022-07-25T22:44:06.933Z,70.40
2022-07-25T22:48:17.883Z,70.60
2022-07-25T22:52:19.962Z,69.90
2022-07-25T22:56:23.260Z,70.70
2022-07-25T23:00:25.285Z,70.00
2022-07-25T23:04:27.367Z,69.50
2022-07-25T23:08:29.863Z,70.80
2022-07-25T23:12:32.157Z,71.00
2022-07-25T23:16:34.140Z,70.40
2022-07-25T23:20:36.072Z,70.70
2022-07-25T23:24:38.266Z,71.60
2022-07-25T23:28:40.383Z,70.90
2022-07-25T23:32:42.367Z,71.30
2022-07-25T23:36:47.226Z,71.00
2022-07-25T23:40:50.028Z,70.80
2022-07-25T23:44:51.914Z,72.90
2022-07-25T23:49:00.107Z,71.20
2022-07-25T23:53:02.197Z,71.80
2022-07-25T23:57:04.644Z,71.90
